Charlotte Douglas International Airport
KCLT : rendu visible

Aérodrome :











RETROUVEZ-NOUS SUR...

 
LOGIN :

S'inscrire | Disclaimer

   EN    FR    IT 

 









Légende :    VFR   VFR Marginal   IFR   IFR Intensif   IFR Très Intensif
Visi : 
Plafond : 
>= 8 km
>= 3000ft
5 à 8 km
1000 à 3000 ft
1500m à 5 km
500 à 1000 ft
800 à 1500m
200 à 500 ft
< 800m
< 200 ft
Symboles :   Orages  Brouillard  Fortes neiges  Fortes précipitations  Vent > 20 kt






- Altitude de l'aérodrome : 748 ft
- Code IATA : CLT


KCLT - Charlotte Douglas International

DERNIER METAR :
  • 150652Z 01004KT 10SM -RA OVC080 04/01 A3025 RMK AO2 RAB0555 SLP246 P0000 T00440011

METARs EXPIRÉS :
  • 150552Z 32005KT 10SM BKN075 OVC095 05/00 A3027 RMK AO2 SLP254 60000 T00500000 10056 20044 58007
  • 150452Z 35006KT 9SM SCT009 SCT028 BKN140 OVC250 05/01 A3029 RMK AO2 SLP259 T00500006 400611028

TAF KCLT
Valide du 15 à 06h jusqu'au 16 à 12h UTC


150624Z 1506/1612 01006KT P6SM VCSH SCT030 BKN070
TEMPO 1508/1512 4SM -SHRA BKN025
FM151500 03008G15KT P6SM -SHRA SCT025 BKN050
FM160300 02010G18KT 6SM -SHRA SCT010 BKN025



MET'MAP, la Météo Aéronautique d'un coup d'oeil ! - Copyright ORBIFLY Décembre 2007 - Disclaimer

ORBIFLY MET'MAP TEAM :

Programmation & Développement : Alexandra Zaïnal
Conception & Développement : Baudouin d'Aumeries
Co-Programmation & Développement : Marc-Olivier Méhu
Soutien technique & logistique : Manuel Goepfert

Contact : metmap@orbifly.com




SOURCES & CREDITS :

   NOAA       Earth
Advisory